createdAt,value
2022-10-05T00:01:24.114Z,101465.56
2022-10-05T00:03:52.850Z,101468.34
2022-10-05T00:06:19.452Z,101473.78
2022-10-05T00:08:46.131Z,101480.78
2022-10-05T00:11:14.434Z,101474.75
2022-10-05T00:13:41.773Z,101479.97
2022-10-05T00:16:11.175Z,101473.91
2022-10-05T00:18:38.623Z,101463.47
2022-10-05T00:21:20.565Z,101458.44
2022-10-05T00:23:48.341Z,101452.38
2022-10-05T00:26:21.708Z,101438.69
2022-10-05T00:28:48.612Z,101439.88
2022-10-05T00:31:19.744Z,101445.91
2022-10-05T00:33:47.078Z,101439.88
2022-10-05T00:36:13.935Z,101439.22
2022-10-05T00:38:41.280Z,101440.06
2022-10-05T00:41:51.404Z,101438.41
2022-10-05T00:44:33.165Z,101448.06
2022-10-05T00:47:17.770Z,101442.84
2022-10-05T00:49:56.544Z,101429.94
2022-10-05T00:52:30.072Z,101432.56
2022-10-05T00:55:10.864Z,101432.75
2022-10-05T00:58:20.702Z,101444.16
2022-10-05T01:01:02.219Z,101448.75
2022-10-05T01:03:51.243Z,101453.16
2022-10-05T01:06:56.270Z,101450.56
2022-10-05T01:09:31.890Z,101443.53
2022-10-05T01:12:21.124Z,101437.69
2022-10-05T01:15:14.988Z,101427.25
2022-10-05T01:18:10.824Z,101440.50
2022-10-05T01:20:37.508Z,101429.84
2022-10-05T01:23:28.205Z,101424.63
2022-10-05T01:26:24.081Z,101424.63
2022-10-05T01:28:56.326Z,101428.06
2022-10-05T01:31:40.301Z,101424.44
2022-10-05T01:34:25.314Z,101427.06
2022-10-05T01:36:58.371Z,101412.19
2022-10-05T01:39:58.633Z,101405.19
2022-10-05T01:42:40.329Z,101407.97
2022-10-05T01:45:57.363Z,101401.94
2022-10-05T01:48:35.724Z,101403.72
2022-10-05T01:51:11.400Z,101398.69
2022-10-05T01:53:59.396Z,101401.31
2022-10-05T01:56:34.999Z,101386.81
2022-10-05T01:59:16.357Z,101392.03
2022-10-05T02:02:03.759Z,101371.31
2022-10-05T02:05:00.987Z,101374.91
2022-10-05T02:07:34.177Z,101360.41
2022-10-05T02:10:36.435Z,101348.50
2022-10-05T02:13:48.675Z,101355.91
2022-10-05T02:16:36.377Z,101347.97
2022-10-05T02:19:15.116Z,101348.47
2022-10-05T02:21:46.565Z,101340.22
2022-10-05T02:24:21.576Z,101339.75
2022-10-05T02:26:51.825Z,101334.88
2022-10-05T02:29:22.297Z,101343.06
2022-10-05T02:32:00.180Z,101345.34
2022-10-05T02:34:41.172Z,101351.72
2022-10-05T02:37:24.978Z,101352.25
2022-10-05T02:40:13.418Z,101348.22
2022-10-05T02:43:00.957Z,101341.56
2022-10-05T02:45:33.613Z,101334.06
2022-10-05T02:48:17.439Z,101323.00
2022-10-05T02:51:01.929Z,101320.56
2022-10-05T02:53:47.322Z,101309.47
2022-10-05T02:56:29.802Z,101308.84
2022-10-05T02:59:21.317Z,101304.78
2022-10-05T03:01:52.476Z,101301.41
2022-10-05T03:04:24.944Z,101293.09
2022-10-05T03:07:02.164Z,101300.91
2022-10-05T03:09:36.233Z,101303.72
2022-10-05T03:12:21.603Z,101302.09
2022-10-05T03:15:06.717Z,101291.84
2022-10-05T03:17:50.022Z,101288.59
2022-10-05T03:20:24.447Z,101300.00
2022-10-05T03:22:53.235Z,101299.38
2022-10-05T03:25:28.774Z,101301.53
2022-10-05T03:27:55.386Z,101297.28
2022-10-05T03:30:25.829Z,101306.25
2022-10-05T03:33:11.322Z,101300.88
2022-10-05T03:35:56.472Z,101304.91
2022-10-05T03:38:38.085Z,101307.19
2022-10-05T03:41:17.763Z,101307.00
2022-10-05T03:44:11.714Z,101301.25
2022-10-05T03:47:05.641Z,101294.88
2022-10-05T03:49:40.468Z,101294.88
2022-10-05T03:52:15.297Z,101288.22
2022-10-05T03:54:47.861Z,101291.84
2022-10-05T03:57:24.402Z,101307.50
2022-10-05T04:00:12.818Z,101305.69
2022-10-05T04:02:54.322Z,101309.72
2022-10-05T04:05:25.277Z,101302.56
2022-10-05T04:08:07.991Z,101292.75
2022-10-05T04:10:45.293Z,101300.22
2022-10-05T04:13:18.484Z,101295.00
2022-10-05T04:16:06.940Z,101298.25
2022-10-05T04:18:42.594Z,101302.28
2022-10-05T04:21:21.398Z,101292.66
2022-10-05T04:24:43.127Z,101293.94
2022-10-05T04:27:16.646Z,101288.72
2022-10-05T04:29:52.096Z,101289.38
2022-10-05T04:32:36.452Z,101287.56
2022-10-05T04:35:18.232Z,101282.34
2022-10-05T04:38:03.236Z,101287.41
2022-10-05T04:40:39.138Z,101287.41
2022-10-05T04:43:33.833Z,101289.00
2022-10-05T04:46:19.490Z,101279.38
2022-10-05T04:49:14.098Z,101279.38
2022-10-05T04:51:59.406Z,101284.41
2022-10-05T04:55:04.011Z,101274.97
2022-10-05T04:57:57.266Z,101288.84
2022-10-05T05:00:36.593Z,101279.19
2022-10-05T05:03:12.351Z,101266.31
2022-10-05T05:06:17.677Z,101275.16
2022-10-05T05:09:22.244Z,101268.13
2022-10-05T05:12:04.052Z,101261.28
2022-10-05T05:14:33.294Z,101263.91
2022-10-05T05:17:17.366Z,101266.50
2022-10-05T05:20:42.586Z,101260.47
2022-10-05T05:23:36.036Z,101266.66
2022-10-05T05:26:38.976Z,101263.28
2022-10-05T05:29:21.858Z,101258.69
2022-10-05T05:31:54.575Z,101251.03
2022-10-05T05:34:54.930Z,101251.84
2022-10-05T05:37:33.395Z,101250.22
2022-10-05T05:40:15.313Z,101251.03
2022-10-05T05:43:00.385Z,101251.84
2022-10-05T05:45:50.366Z,101250.88
2022-10-05T05:48:36.782Z,101249.22
2022-10-05T05:51:43.825Z,101246.47
2022-10-05T05:54:16.295Z,101251.69
2022-10-05T05:57:08.959Z,101243.03
2022-10-05T06:00:06.212Z,101240.22
2022-10-05T06:02:48.438Z,101246.28
2022-10-05T06:05:21.113Z,101236.66
2022-10-05T06:07:48.026Z,101244.09
2022-10-05T06:10:34.851Z,101245.91
2022-10-05T06:13:10.602Z,101245.72
2022-10-05T06:15:50.638Z,101241.34
2022-10-05T06:18:20.577Z,101248.16
2022-10-05T06:20:51.512Z,101251.22
2022-10-05T06:23:39.999Z,101251.06
2022-10-05T06:26:18.102Z,101255.13
2022-10-05T06:28:53.530Z,101259.53
2022-10-05T06:32:14.954Z,101258.38
2022-10-05T06:34:50.707Z,101256.56
2022-10-05T06:37:40.354Z,101256.22
2022-10-05T06:40:27.234Z,101259.63
2022-10-05T06:43:40.656Z,101254.25
2022-10-05T06:46:23.259Z,101250.63
2022-10-05T06:49:04.836Z,101257.28
2022-10-05T06:51:46.875Z,101259.91
2022-10-05T06:54:57.882Z,101260.72
2022-10-05T06:57:44.962Z,101266.75
2022-10-05T07:00:18.328Z,101257.91
2022-10-05T07:02:48.629Z,101264.78
2022-10-05T07:05:44.960Z,101266.38
2022-10-05T07:08:47.785Z,101267.81
2022-10-05T07:11:48.991Z,101267.47
2022-10-05T07:14:39.921Z,101274.75
2022-10-05T07:17:30.735Z,101271.19
2022-10-05T07:20:15.795Z,101267.38
2022-10-05T07:22:50.329Z,101277.47
2022-10-05T07:25:28.935Z,101268.81
2022-10-05T07:28:08.000Z,101270.25
2022-10-05T07:31:05.009Z,101278.91
2022-10-05T07:33:46.387Z,101285.56
2022-10-05T07:36:50.924Z,101277.53
2022-10-05T07:39:59.467Z,101280.63
2022-10-05T07:43:00.010Z,101282.69
2022-10-05T07:45:51.654Z,101277.72
2022-10-05T07:48:26.760Z,101282.56
2022-10-05T07:51:16.164Z,101279.41
2022-10-05T07:53:57.540Z,101288.69
2022-10-05T07:56:34.069Z,101278.72
2022-10-05T07:59:07.904Z,101281.75
2022-10-05T08:01:48.800Z,101280.78
2022-10-05T08:04:27.768Z,101273.34
2022-10-05T08:06:59.336Z,101278.84
2022-10-05T08:09:43.110Z,101280.91
2022-10-05T08:12:24.821Z,101278.56
2022-10-05T08:15:03.782Z,101282.22
2022-10-05T08:17:55.344Z,101282.31
2022-10-05T08:20:33.827Z,101275.53
2022-10-05T08:23:25.181Z,101260.28
2022-10-05T08:26:05.510Z,101263.97
2022-10-05T08:28:59.089Z,101260.81
2022-10-05T08:31:40.151Z,101249.63
2022-10-05T08:34:27.840Z,101254.09
2022-10-05T08:37:08.698Z,101255.94
2022-10-05T08:40:04.713Z,101245.38
2022-10-05T08:43:08.953Z,101248.66
2022-10-05T08:45:55.462Z,101245.28
2022-10-05T08:48:40.521Z,101242.88
2022-10-05T08:51:23.242Z,101250.97
2022-10-05T08:54:05.207Z,101247.38
2022-10-05T08:56:46.016Z,101248.81
2022-10-05T08:59:34.903Z,101243.16
2022-10-05T09:02:20.363Z,101233.16
2022-10-05T09:04:58.342Z,101230.16
2022-10-05T09:07:39.192Z,101237.59
2022-10-05T09:10:20.854Z,101230.81
2022-10-05T09:13:04.997Z,101233.09
2022-10-05T09:16:04.418Z,101232.53
2022-10-05T09:18:49.889Z,101231.81
2022-10-05T09:21:37.934Z,101213.13
2022-10-05T09:24:13.542Z,101229.06
2022-10-05T09:27:00.425Z,101222.63
2022-10-05T09:29:49.047Z,101221.84
2022-10-05T09:32:31.028Z,101218.25
2022-10-05T09:35:16.637Z,101222.31
2022-10-05T09:38:03.456Z,101215.88
2022-10-05T09:41:14.690Z,101201.41
2022-10-05T09:44:05.102Z,101200.84
2022-10-05T09:46:47.686Z,101192.38
2022-10-05T09:49:17.085Z,101183.06
2022-10-05T09:52:02.028Z,101181.25
2022-10-05T09:54:40.356Z,101198.00
2022-10-05T09:57:15.972Z,101182.25
2022-10-05T09:59:45.431Z,101183.25
2022-10-05T10:02:28.359Z,101182.03
2022-10-05T10:05:39.063Z,101173.53
2022-10-05T10:08:38.075Z,101176.53
2022-10-05T10:11:10.226Z,101180.34
2022-10-05T10:14:00.184Z,101168.00
2022-10-05T10:16:53.697Z,101171.44
2022-10-05T10:20:05.324Z,101163.53
2022-10-05T10:22:34.580Z,101159.50
2022-10-05T10:25:37.979Z,101174.44
2022-10-05T10:28:20.394Z,101166.91
2022-10-05T10:31:16.106Z,101154.53
2022-10-05T10:34:07.016Z,101145.81
2022-10-05T10:36:52.456Z,101148.44
2022-10-05T10:39:54.093Z,101152.31
2022-10-05T10:42:49.120Z,101137.50
2022-10-05T10:45:29.820Z,101138.25
2022-10-05T10:48:09.073Z,101128.31
2022-10-05T10:51:11.270Z,101136.09
2022-10-05T10:54:05.534Z,101134.00
2022-10-05T10:56:44.270Z,101131.34
2022-10-05T10:59:35.816Z,101107.66
2022-10-05T11:02:21.319Z,101112.06
2022-10-05T11:05:18.420Z,101121.94
2022-10-05T11:07:58.256Z,101125.22
2022-10-05T11:10:27.562Z,101123.81
2022-10-05T11:13:31.657Z,101115.06
2022-10-05T11:16:19.964Z,101115.66
2022-10-05T11:19:11.032Z,101121.34
2022-10-05T11:22:17.181Z,101109.78
2022-10-05T11:24:55.748Z,101101.03
2022-10-05T11:27:57.657Z,101096.72
2022-10-05T11:31:01.886Z,101091.91
2022-10-05T11:33:59.876Z,101089.28
2022-10-05T11:37:02.977Z,101083.41
2022-10-05T11:39:40.045Z,101083.41
2022-10-05T11:42:23.525Z,101083.78
2022-10-05T11:45:14.491Z,101074.06
2022-10-05T11:48:04.455Z,101075.50
2022-10-05T11:50:32.691Z,101061.91
2022-10-05T11:53:24.466Z,101061.56
2022-10-05T11:56:34.874Z,101062.34
2022-10-05T11:59:35.790Z,101051.81
2022-10-05T12:02:32.272Z,101046.53
2022-10-05T12:05:01.846Z,101048.75
2022-10-05T12:07:45.686Z,101047.75
2022-10-05T12:10:28.916Z,101034.78
2022-10-05T12:13:08.779Z,101045.69
2022-10-05T12:15:52.712Z,101042.03
2022-10-05T12:18:48.926Z,101043.22
2022-10-05T12:21:22.762Z,101041.31
2022-10-05T12:24:01.034Z,101039.84
2022-10-05T12:26:37.855Z,101047.00
2022-10-05T12:29:26.188Z,101032.03
2022-10-05T12:32:17.481Z,101032.63
2022-10-05T12:35:03.277Z,101044.72
2022-10-05T12:37:50.679Z,101034.00
2022-10-05T12:40:43.590Z,101035.25
2022-10-05T12:43:48.871Z,101026.31
2022-10-05T12:46:40.186Z,101037.22
2022-10-05T12:49:06.633Z,101031.06
2022-10-05T12:51:36.130Z,101028.34
2022-10-05T12:54:23.790Z,101024.03
2022-10-05T12:57:13.760Z,101023.16
2022-10-05T13:00:03.632Z,101024.09
2022-10-05T13:03:00.175Z,101024.44
2022-10-05T13:05:46.978Z,101020.38
2022-10-05T13:08:36.289Z,101016.25
2022-10-05T13:11:16.192Z,101012.13
2022-10-05T13:14:02.470Z,101017.78
2022-10-05T13:16:50.158Z,101012.50
2022-10-05T13:19:37.051Z,101019.03
2022-10-05T13:22:32.851Z,101011.31
2022-10-05T13:25:14.278Z,101013.53
2022-10-05T13:28:02.494Z,101014.34
2022-10-05T13:30:29.671Z,101021.00
2022-10-05T13:33:32.170Z,101009.41
2022-10-05T13:36:13.674Z,101003.00
2022-10-05T13:38:43.401Z,101008.94
2022-10-05T13:41:34.611Z,101007.78
2022-10-05T13:44:16.960Z,101005.72
2022-10-05T13:47:00.016Z,100998.38
2022-10-05T13:49:44.729Z,100987.63
2022-10-05T13:52:42.526Z,100996.34
2022-10-05T13:55:21.095Z,100986.03
2022-10-05T13:58:07.668Z,100981.78
2022-10-05T14:00:47.180Z,100984.97
2022-10-05T14:03:40.088Z,100983.28
2022-10-05T14:06:27.696Z,100976.78
2022-10-05T14:08:54.525Z,100976.38
2022-10-05T14:11:31.468Z,100975.09
2022-10-05T14:14:13.790Z,100972.25
2022-10-05T14:17:00.935Z,100978.31
2022-10-05T14:19:32.428Z,100964.34
2022-10-05T14:22:24.211Z,100959.28
2022-10-05T14:25:02.755Z,100962.38
2022-10-05T14:27:33.548Z,100960.75
2022-10-05T14:30:23.714Z,100960.75
2022-10-05T14:32:57.215Z,100958.13
2022-10-05T14:35:29.386Z,100953.66
2022-10-05T14:38:02.450Z,100948.75
2022-10-05T14:40:34.275Z,100953.56
2022-10-05T14:43:16.406Z,100950.94
2022-10-05T14:46:01.558Z,100929.84
2022-10-05T14:48:38.704Z,100930.66
2022-10-05T14:51:10.844Z,100929.28
2022-10-05T14:53:41.357Z,100927.66
2022-10-05T14:56:51.163Z,100931.34
2022-10-05T14:59:33.732Z,100928.94
2022-10-05T15:02:26.889Z,100933.41
2022-10-05T15:05:01.706Z,100933.59
2022-10-05T15:07:34.378Z,100941.72
2022-10-05T15:10:27.103Z,100940.91
2022-10-05T15:13:17.438Z,100948.03
2022-10-05T15:15:50.572Z,100936.88
2022-10-05T15:18:31.952Z,100948.47
2022-10-05T15:21:22.595Z,100946.84
2022-10-05T15:24:14.991Z,100949.16
2022-10-05T15:27:00.163Z,100949.34
2022-10-05T15:29:55.583Z,100953.03
2022-10-05T15:32:42.144Z,100949.00
2022-10-05T15:35:27.318Z,100944.41
2022-10-05T15:37:59.748Z,100953.56
2022-10-05T15:41:05.539Z,100954.81
2022-10-05T15:44:10.930Z,100956.88
2022-10-05T15:46:45.177Z,100960.75
2022-10-05T15:49:50.725Z,100971.50
2022-10-05T15:52:29.750Z,100972.75
2022-10-05T15:55:05.085Z,100971.94
2022-10-05T15:57:43.895Z,100973.19
2022-10-05T16:00:13.031Z,100970.34
2022-10-05T16:02:55.574Z,100972.38
2022-10-05T16:05:50.384Z,100980.53
2022-10-05T16:08:50.576Z,100983.59
2022-10-05T16:11:31.737Z,101000.44
2022-10-05T16:14:22.284Z,100999.84
2022-10-05T16:17:00.547Z,101006.13
2022-10-05T16:19:38.136Z,101008.19
2022-10-05T16:22:43.522Z,101013.09
2022-10-05T16:25:13.030Z,101010.47
2022-10-05T16:27:52.706Z,101022.44
2022-10-05T16:30:23.005Z,101018.63
2022-10-05T16:33:02.237Z,101031.81
2022-10-05T16:35:43.648Z,101039.94
2022-10-05T16:38:19.426Z,101039.34
2022-10-05T16:41:03.741Z,101047.50
2022-10-05T16:43:49.596Z,101060.31
2022-10-05T16:46:35.106Z,101054.97
2022-10-05T16:49:44.503Z,101057.00
2022-10-05T16:52:16.298Z,101060.53
2022-10-05T16:54:48.977Z,101071.09
2022-10-05T16:57:22.566Z,101073.34
2022-10-05T17:00:17.422Z,101083.28
2022-10-05T17:03:10.281Z,101083.09
2022-10-05T17:06:01.685Z,101088.81
2022-10-05T17:08:46.604Z,101102.38
2022-10-05T17:11:22.206Z,101100.63
2022-10-05T17:14:15.189Z,101103.31
2022-10-05T17:16:44.688Z,101098.06
2022-10-05T17:19:11.264Z,101118.31
2022-10-05T17:22:00.782Z,101129.47
2022-10-05T17:25:02.348Z,101130.94
2022-10-05T17:27:31.950Z,101126.31
2022-10-05T17:30:23.576Z,101133.03
2022-10-05T17:32:58.290Z,101146.75
2022-10-05T17:35:50.877Z,101145.78
2022-10-05T17:38:35.427Z,101151.66
2022-10-05T17:41:20.172Z,101141.38
2022-10-05T17:44:06.958Z,101148.28
2022-10-05T17:46:39.674Z,101149.91
2022-10-05T17:49:34.942Z,101153.56
2022-10-05T17:52:23.718Z,101136.78
2022-10-05T17:55:09.028Z,101148.72
2022-10-05T17:57:40.291Z,101153.56
2022-10-05T18:00:33.629Z,101150.94
2022-10-05T18:03:00.333Z,101171.78
2022-10-05T18:05:30.835Z,101170.75
2022-10-05T18:08:12.999Z,101170.94
2022-10-05T18:11:08.398Z,101172.97
2022-10-05T18:13:41.639Z,101170.34
2022-10-05T18:16:10.322Z,101173.16
2022-10-05T18:18:44.475Z,101182.06
2022-10-05T18:21:14.002Z,101181.03
2022-10-05T18:24:00.737Z,101177.00
2022-10-05T18:26:41.650Z,101166.50
2022-10-05T18:29:48.686Z,101183.28
2022-10-05T18:32:47.512Z,101168.34
2022-10-05T18:35:22.536Z,101168.53
2022-10-05T18:38:28.000Z,101176.00
2022-10-05T18:41:09.086Z,101178.63
2022-10-05T18:43:46.032Z,101182.47
2022-10-05T18:46:39.858Z,101180.84
2022-10-05T18:49:28.786Z,101181.25
2022-10-05T18:52:09.556Z,101170.56
2022-10-05T18:55:02.514Z,101183.06
2022-10-05T18:57:38.653Z,101183.69
2022-10-05T19:00:25.423Z,101174.22
2022-10-05T19:02:57.233Z,101185.50
2022-10-05T19:05:56.400Z,101180.06
2022-10-05T19:08:32.970Z,101185.31
2022-10-05T19:11:15.442Z,101181.25
2022-10-05T19:13:58.250Z,101185.69
2022-10-05T19:16:24.837Z,101197.41
2022-10-05T19:19:29.383Z,101185.91
2022-10-05T19:22:03.612Z,101186.50
2022-10-05T19:24:48.232Z,101200.44
2022-10-05T19:27:36.435Z,101186.09
2022-10-05T19:30:18.234Z,101188.09
2022-10-05T19:33:22.615Z,101182.44
2022-10-05T19:35:58.307Z,101192.13
2022-10-05T19:38:46.964Z,101193.78
2022-10-05T19:41:22.550Z,101193.56
2022-10-05T19:44:09.452Z,101198.81
2022-10-05T19:46:56.282Z,101199.63
2022-10-05T19:49:37.691Z,101194.38
2022-10-05T19:52:11.960Z,101199.41
2022-10-05T19:54:39.234Z,101197.00
2022-10-05T19:57:17.875Z,101210.94
2022-10-05T19:59:48.368Z,101206.50
2022-10-05T20:02:17.072Z,101200.22
2022-10-05T20:04:47.492Z,101203.66
2022-10-05T20:07:17.440Z,101206.88
2022-10-05T20:09:59.305Z,101207.09
2022-10-05T20:12:50.609Z,101209.72
2022-10-05T20:15:41.837Z,101213.94
2022-10-05T20:18:58.348Z,101214.97
2022-10-05T20:21:49.809Z,101215.78
2022-10-05T20:24:26.715Z,101217.38
2022-10-05T20:27:16.411Z,101225.25
2022-10-05T20:29:44.917Z,101225.03
2022-10-05T20:32:14.167Z,101230.28
2022-10-05T20:34:47.995Z,101242.44
2022-10-05T20:37:16.849Z,101242.22
2022-10-05T20:39:44.041Z,101228.09
2022-10-05T20:42:11.287Z,101222.03
2022-10-05T20:44:38.117Z,101242.22
2022-10-05T20:47:09.089Z,101260.41
2022-10-05T20:49:37.251Z,101272.72
2022-10-05T20:52:06.158Z,101270.09
2022-10-05T20:54:32.811Z,101281.59
2022-10-05T20:56:59.518Z,101277.75
2022-10-05T20:59:26.707Z,101283.00
2022-10-05T21:01:53.623Z,101283.00
2022-10-05T21:04:25.236Z,101297.16
2022-10-05T21:06:52.975Z,101327.88
2022-10-05T21:09:21.511Z,101380.56
2022-10-05T21:11:55.476Z,101400.72
2022-10-05T21:14:23.705Z,101418.44
2022-10-05T21:16:51.095Z,101398.16
2022-10-05T21:19:17.723Z,101388.34
2022-10-05T21:21:45.770Z,101404.78
2022-10-05T21:24:14.360Z,101415.38
2022-10-05T21:26:42.109Z,101422.56
2022-10-05T21:29:12.794Z,101418.25
2022-10-05T21:31:40.656Z,101426.88
2022-10-05T21:34:07.768Z,101432.59
2022-10-05T21:36:34.666Z,101442.38
2022-10-05T21:39:02.978Z,101445.56
2022-10-05T21:41:29.631Z,101461.19
2022-10-05T21:43:56.207Z,101467.59
2022-10-05T21:46:26.598Z,101466.38
2022-10-05T21:48:54.481Z,101479.38
2022-10-05T21:51:23.872Z,101472.00
2022-10-05T21:53:55.961Z,101494.38
2022-10-05T21:56:27.185Z,101488.63
2022-10-05T21:58:53.963Z,101492.94
2022-10-05T22:01:22.922Z,101498.06
2022-10-05T22:03:49.999Z,101501.34
2022-10-05T22:06:16.570Z,101498.41
2022-10-05T22:08:43.309Z,101499.22
2022-10-05T22:11:15.551Z,101508.25
2022-10-05T22:13:50.996Z,101510.22
2022-10-05T22:16:20.365Z,101508.44
2022-10-05T22:18:49.111Z,101511.41
2022-10-05T22:21:16.939Z,101512.56
2022-10-05T22:23:45.649Z,101524.47
2022-10-05T22:26:16.120Z,101522.88
2022-10-05T22:28:44.412Z,101519.25
2022-10-05T22:31:12.545Z,101523.50
2022-10-05T22:33:40.021Z,101525.91
2022-10-05T22:36:07.854Z,101534.78
2022-10-05T22:38:34.684Z,101545.03
2022-10-05T22:41:01.341Z,101553.41
2022-10-05T22:43:28.217Z,101549.97
2022-10-05T22:45:56.045Z,101559.63
2022-10-05T22:48:22.675Z,101558.03
2022-10-05T22:50:49.482Z,101568.09
2022-10-05T22:53:16.239Z,101564.84
2022-10-05T22:55:42.891Z,101572.06
2022-10-05T22:58:09.412Z,101576.84
2022-10-05T23:00:57.156Z,101578.66
2022-10-05T23:03:22.662Z,101575.41
2022-10-05T23:05:58.820Z,101585.84
2022-10-05T23:08:25.821Z,101590.16
2022-10-05T23:10:52.688Z,101588.19
2022-10-05T23:13:19.261Z,101579.72
2022-10-05T23:15:45.865Z,101596.66
2022-10-05T23:18:12.325Z,101599.47
2022-10-05T23:20:40.181Z,101605.50
2022-10-05T23:23:06.761Z,101610.59
2022-10-05T23:25:33.598Z,101609.63
2022-10-05T23:28:02.479Z,101613.41
2022-10-05T23:30:29.152Z,101621.94
2022-10-05T23:32:55.742Z,101622.81
2022-10-05T23:35:22.496Z,101621.88
2022-10-05T23:37:49.055Z,101634.84
2022-10-05T23:40:15.735Z,101641.53
2022-10-05T23:42:42.429Z,101637.34
2022-10-05T23:45:11.145Z,101647.34
2022-10-05T23:47:38.629Z,101658.31
2022-10-05T23:50:08.986Z,101676.75
2022-10-05T23:52:36.565Z,101673.84
2022-10-05T23:55:04.815Z,101680.56
2022-10-05T23:57:31.517Z,101683.34
2022-10-05T23:59:58.061Z,101678.63
